Reid, Mississippi
Current Conditions -  °F | °C
As of 9:53 AM on Monday 26 Jan 2015 (Local Time) from KTUP Reporting Station
Overcast Overcast  
Wind Chill: 35°   Ceiling: 2300
Heat Index: 41°   Visibility: 10mi
Dew Point: 31°   Wind: 9mph
Humidity: 67%   Direction: 350°N
Pressure: 30.11"   Gusts: NA
Location:  33.9472°N, 89.1968°W
Report Text: KTUP 261553Z 35008KT 10SM OVC023 05/M01 A3011 RMK AO2 SLP195 T00501006
Loading
Personal Weather Stations






























Interactive Weather Map New forecast layout! Learn more

10-Day Weather Forecast

Advertisements
Track Severe Weather on mobile